createdAt,value
2023-02-23T03:41:35.308Z,10.70
2023-02-23T03:44:23.314Z,10.70
2023-02-23T03:47:10.468Z,10.70
2023-02-23T03:49:56.923Z,10.70
2023-02-23T03:52:44.483Z,10.70
2023-02-23T03:55:34.012Z,10.70
2023-02-23T03:58:23.805Z,10.70
2023-02-23T04:01:10.191Z,10.60
2023-02-23T04:03:58.640Z,10.70
2023-02-23T04:06:45.266Z,10.60
2023-02-23T04:09:31.571Z,10.60
2023-02-23T04:12:18.979Z,10.60
2023-02-23T04:14:51.167Z,10.60
2023-02-23T04:17:24.635Z,10.60
2023-02-23T04:19:53.841Z,10.60
2023-02-23T04:22:22.463Z,10.60
2023-02-23T04:24:51.377Z,10.70
2023-02-23T04:27:20.060Z,10.60
2023-02-23T04:29:49.990Z,10.60
2023-02-23T04:32:19.163Z,10.60
2023-02-23T04:34:47.741Z,10.60
2023-02-23T04:37:16.169Z,10.60
2023-02-23T04:39:48.551Z,10.60
2023-02-23T04:42:17.015Z,10.60
2023-02-23T04:44:45.438Z,10.50
2023-02-23T04:47:15.750Z,10.50
2023-02-23T04:49:44.118Z,10.50
2023-02-23T04:52:12.613Z,10.60
2023-02-23T04:54:41.184Z,10.60
2023-02-23T04:57:10.101Z,10.50
2023-02-23T04:59:38.702Z,10.50
2023-02-23T05:02:07.500Z,10.50
2023-02-23T05:04:37.324Z,10.60
2023-02-23T05:07:05.875Z,10.50
2023-02-23T05:09:35.056Z,10.60
2023-02-23T05:12:03.532Z,10.60
2023-02-23T05:14:32.221Z,10.60
2023-02-23T05:17:00.659Z,10.60
2023-02-23T05:19:29.120Z,10.50
2023-02-23T05:21:58.967Z,10.50
2023-02-23T05:24:27.403Z,10.60
2023-02-23T05:26:55.760Z,10.50
2023-02-23T05:29:24.174Z,10.50
2023-02-23T05:31:52.719Z,10.50
2023-02-23T05:34:21.167Z,10.50
2023-02-23T05:36:49.582Z,10.50
2023-02-23T05:39:19.425Z,10.40
2023-02-23T05:41:47.829Z,10.40
2023-02-23T05:44:16.183Z,10.40
2023-02-23T05:46:46.472Z,10.40
2023-02-23T05:49:14.927Z,10.30
2023-02-23T05:51:43.337Z,10.40
2023-02-23T05:54:11.898Z,10.40
2023-02-23T05:56:42.220Z,10.50
2023-02-23T05:59:10.677Z,10.40
2023-02-23T06:01:39.228Z,10.50
2023-02-23T06:04:07.632Z,10.50
2023-02-23T06:06:36.519Z,10.50
2023-02-23T06:09:05.170Z,10.60
2023-02-23T06:11:33.615Z,10.50
2023-02-23T06:14:03.451Z,10.60
2023-02-23T06:16:32.015Z,10.50
2023-02-23T06:19:00.598Z,10.50
2023-02-23T06:21:29.228Z,10.50
2023-02-23T06:24:00.688Z,10.50
2023-02-23T06:26:29.656Z,10.50
2023-02-23T06:28:58.081Z,10.50
2023-02-23T06:31:28.025Z,10.50
2023-02-23T06:33:56.504Z,10.50
2023-02-23T06:36:24.879Z,10.50
2023-02-23T06:38:56.661Z,10.60
2023-02-23T06:41:25.479Z,10.60
2023-02-23T06:43:54.025Z,10.70
2023-02-23T06:46:23.069Z,10.70
2023-02-23T06:48:55.690Z,10.70
2023-02-23T06:51:24.170Z,10.70
2023-02-23T06:53:53.505Z,10.80
2023-02-23T06:56:22.035Z,10.80
2023-02-23T06:58:50.556Z,10.80
2023-02-23T07:01:19.672Z,10.80
2023-02-23T07:03:48.283Z,10.80
2023-02-23T07:06:18.164Z,10.90
2023-02-23T07:08:46.587Z,10.90
2023-02-23T07:11:16.004Z,11.00
2023-02-23T07:13:44.534Z,11.00
2023-02-23T07:16:14.913Z,11.00
2023-02-23T07:18:43.392Z,11.00
2023-02-23T07:21:11.892Z,11.00
2023-02-23T07:23:41.714Z,11.00
2023-02-23T07:26:10.493Z,11.10
2023-02-23T07:28:38.951Z,11.10
2023-02-23T07:31:07.401Z,11.10
2023-02-23T07:33:35.901Z,11.10
2023-02-23T07:36:04.433Z,11.20
2023-02-23T07:38:32.902Z,11.20
2023-02-23T07:41:02.709Z,11.30
2023-02-23T07:43:31.631Z,11.30
2023-02-23T07:46:00.831Z,11.30
2023-02-23T07:48:29.320Z,11.40
2023-02-23T07:50:57.790Z,11.40
2023-02-23T07:53:27.872Z,11.40
2023-02-23T07:55:59.427Z,11.50
2023-02-23T07:58:30.613Z,11.50
2023-02-23T08:00:59.058Z,11.60
2023-02-23T08:03:27.457Z,11.60
2023-02-23T08:05:55.891Z,11.70
2023-02-23T08:08:24.451Z,11.70
2023-02-23T08:10:52.888Z,11.80
2023-02-23T08:13:21.293Z,11.90
2023-02-23T08:15:51.175Z,11.90
2023-02-23T08:18:19.654Z,12.00
2023-02-23T08:20:48.090Z,12.10
2023-02-23T08:23:18.171Z,12.20
2023-02-23T08:25:46.618Z,12.30
2023-02-23T08:28:15.088Z,12.40
2023-02-23T08:30:43.570Z,12.60
2023-02-23T08:33:13.385Z,12.80
2023-02-23T08:35:41.818Z,13.00
2023-02-23T08:38:10.293Z,13.20
2023-02-23T08:40:38.718Z,13.40
2023-02-23T08:43:07.104Z,13.50
2023-02-23T08:45:35.577Z,13.50
2023-02-23T08:48:03.975Z,13.50
2023-02-23T08:50:33.712Z,13.50
2023-02-23T08:53:02.148Z,13.60
2023-02-23T08:55:53.522Z,13.60
2023-02-23T08:58:23.332Z,13.60
2023-02-23T09:00:51.835Z,13.70
2023-02-23T09:03:20.438Z,13.80
2023-02-23T09:05:50.745Z,13.80
2023-02-23T09:08:19.562Z,13.90
2023-02-23T09:10:48.096Z,14.00
2023-02-23T09:13:17.251Z,14.00
2023-02-23T09:15:45.702Z,14.10
2023-02-23T09:18:14.896Z,14.20
2023-02-23T09:20:43.931Z,14.30
2023-02-23T09:23:13.883Z,14.30
2023-02-23T09:25:43.932Z,14.30
2023-02-23T09:28:13.095Z,14.30
2023-02-23T09:30:42.323Z,14.30
2023-02-23T09:33:11.074Z,14.30
2023-02-23T09:35:39.547Z,14.40
2023-02-23T09:38:08.806Z,14.40
2023-02-23T09:40:46.994Z,14.50
2023-02-23T09:43:17.545Z,14.50
2023-02-23T09:45:48.525Z,14.50
2023-02-23T09:48:19.089Z,14.40
2023-02-23T09:50:51.175Z,14.20
2023-02-23T09:53:37.589Z,14.00
2023-02-23T09:56:09.477Z,14.00
2023-02-23T09:58:37.878Z,13.90
2023-02-23T10:01:24.030Z,13.90
2023-02-23T10:03:56.556Z,13.90
2023-02-23T10:06:25.117Z,13.90
2023-02-23T10:08:59.071Z,13.90
2023-02-23T10:11:33.080Z,13.90
2023-02-23T10:14:18.268Z,13.90
2023-02-23T10:16:52.520Z,13.80
2023-02-23T10:19:24.056Z,13.90
2023-02-23T10:21:55.630Z,13.90
2023-02-23T10:24:26.437Z,13.90
2023-02-23T10:26:57.633Z,14.10
2023-02-23T10:29:28.537Z,14.00
2023-02-23T10:31:58.813Z,14.10
2023-02-23T10:34:29.028Z,14.10
2023-02-23T10:36:59.872Z,14.20
2023-02-23T10:39:28.868Z,14.20
2023-02-23T10:41:59.611Z,14.30
2023-02-23T10:44:29.057Z,14.40
2023-02-23T10:47:00.017Z,14.40
2023-02-23T10:49:31.737Z,14.50
2023-02-23T10:52:03.177Z,14.60
2023-02-23T10:54:47.639Z,14.70
2023-02-23T10:57:27.922Z,14.80
2023-02-23T11:00:04.489Z,14.90
2023-02-23T11:02:33.396Z,15.00
2023-02-23T11:05:02.476Z,15.10
2023-02-23T11:07:31.626Z,15.20
2023-02-23T11:10:00.746Z,15.20
2023-02-23T11:12:37.731Z,15.20
2023-02-23T11:15:39.397Z,15.20
2023-02-23T11:18:20.985Z,15.20
2023-02-23T11:20:57.452Z,15.30
2023-02-23T11:23:29.161Z,15.30
2023-02-23T11:26:01.004Z,15.50
2023-02-23T11:28:32.407Z,15.50
2023-02-23T11:31:04.624Z,15.50
2023-02-23T11:33:36.167Z,15.50
2023-02-23T11:36:26.833Z,15.50
2023-02-23T11:39:02.054Z,15.60
2023-02-23T11:41:31.818Z,15.60
2023-02-23T11:44:04.928Z,15.60
2023-02-23T11:46:36.517Z,15.70
2023-02-23T11:49:06.688Z,15.70
2023-02-23T11:51:36.722Z,15.80
2023-02-23T11:54:06.312Z,15.80
2023-02-23T11:56:35.647Z,15.80
2023-02-23T11:59:07.449Z,15.70
2023-02-23T12:01:39.723Z,15.60
2023-02-23T12:04:09.799Z,15.70
2023-02-23T12:06:39.017Z,15.70
2023-02-23T12:09:13.089Z,15.80
2023-02-23T12:11:45.316Z,15.70
2023-02-23T12:14:20.496Z,15.70
2023-02-23T12:16:50.938Z,15.80
2023-02-23T12:19:24.106Z,15.90
2023-02-23T12:21:54.992Z,15.90
2023-02-23T12:24:26.689Z,16.00
2023-02-23T12:26:58.134Z,15.90
2023-02-23T12:29:32.317Z,15.80
2023-02-23T12:32:03.162Z,15.90
2023-02-23T12:34:33.240Z,15.90
2023-02-23T12:37:07.525Z,15.80
2023-02-23T12:39:37.867Z,15.90
2023-02-23T12:42:11.898Z,15.90
2023-02-23T12:44:45.748Z,15.70
2023-02-23T12:47:17.915Z,15.70
2023-02-23T12:49:47.313Z,15.70
2023-02-23T12:52:18.585Z,15.80
2023-02-23T12:54:47.786Z,15.80
2023-02-23T12:57:20.666Z,15.90
2023-02-23T13:00:04.309Z,15.90
2023-02-23T13:02:37.601Z,15.90
2023-02-23T13:05:16.320Z,15.70
2023-02-23T13:07:47.959Z,15.80
2023-02-23T13:10:21.619Z,15.70
2023-02-23T13:12:53.226Z,15.70
2023-02-23T13:15:27.135Z,15.60
2023-02-23T13:17:59.196Z,15.60
2023-02-23T13:20:31.023Z,15.50
2023-02-23T13:23:02.745Z,15.50
2023-02-23T13:25:38.296Z,15.50
2023-02-23T13:28:07.656Z,15.50
2023-02-23T13:30:42.482Z,15.50
2023-02-23T13:33:16.895Z,15.50
2023-02-23T13:35:45.494Z,15.50
2023-02-23T13:38:18.787Z,15.50
2023-02-23T13:40:49.773Z,15.50
2023-02-23T13:43:23.179Z,15.50
2023-02-23T13:46:01.744Z,15.60
2023-02-23T13:48:38.018Z,15.80
2023-02-23T13:51:15.051Z,15.80
2023-02-23T13:53:44.216Z,15.70
2023-02-23T13:56:16.736Z,15.70
2023-02-23T13:58:49.090Z,15.60
2023-02-23T14:01:22.181Z,15.70
2023-02-23T14:03:55.437Z,15.60
2023-02-23T14:06:24.747Z,15.60
2023-02-23T14:08:55.535Z,15.60
2023-02-23T14:11:35.264Z,15.60
2023-02-23T14:14:04.091Z,15.50
2023-02-23T14:16:33.996Z,15.30
2023-02-23T14:19:12.435Z,15.30
2023-02-23T14:21:45.063Z,15.10
2023-02-23T14:24:18.741Z,15.10
2023-02-23T14:27:08.388Z,15.10
2023-02-23T14:29:40.657Z,15.00
2023-02-23T14:32:31.059Z,15.10
2023-02-23T14:35:00.153Z,15.10
2023-02-23T14:37:32.423Z,15.10
2023-02-23T14:40:12.134Z,15.00
2023-02-23T14:42:41.433Z,15.10
2023-02-23T14:45:18.893Z,15.00
2023-02-23T14:47:49.527Z,14.90
2023-02-23T14:50:21.026Z,14.90
2023-02-23T14:52:49.711Z,14.90
2023-02-23T14:55:24.367Z,14.90
2023-02-23T14:57:54.310Z,14.90
2023-02-23T15:00:24.172Z,14.90
2023-02-23T15:02:58.302Z,14.80
2023-02-23T15:05:27.864Z,14.80
2023-02-23T15:07:58.896Z,14.70
2023-02-23T15:10:29.199Z,14.60
2023-02-23T15:12:57.753Z,14.60
2023-02-23T15:15:26.861Z,14.60
2023-02-23T15:17:56.399Z,14.60
2023-02-23T15:20:32.532Z,14.50
2023-02-23T15:23:02.522Z,14.50
2023-02-23T15:25:35.660Z,14.40
2023-02-23T15:28:21.040Z,14.40
2023-02-23T15:30:50.519Z,14.40
2023-02-23T15:33:23.514Z,14.50
2023-02-23T15:35:55.240Z,14.50
2023-02-23T15:38:42.498Z,14.50
2023-02-23T15:41:16.139Z,14.50
2023-02-23T15:43:44.741Z,14.50
2023-02-23T15:46:17.835Z,14.40
2023-02-23T15:48:47.311Z,14.50
2023-02-23T15:51:23.061Z,14.40
2023-02-23T15:53:51.751Z,14.30
2023-02-23T15:56:23.945Z,14.10
2023-02-23T15:58:57.270Z,14.00
2023-02-23T16:01:26.409Z,13.80
2023-02-23T16:04:00.808Z,13.90
2023-02-23T16:06:34.502Z,13.90
2023-02-23T16:09:19.987Z,13.90
2023-02-23T16:11:50.186Z,13.80
2023-02-23T16:14:20.139Z,13.80
2023-02-23T16:17:01.385Z,13.80
2023-02-23T16:19:40.880Z,13.70
2023-02-23T16:22:15.635Z,13.70
2023-02-23T16:24:44.123Z,13.70
2023-02-23T16:27:13.252Z,13.60
2023-02-23T16:29:42.637Z,13.60
2023-02-23T16:32:15.991Z,13.70
2023-02-23T16:34:48.809Z,13.60
2023-02-23T16:37:19.316Z,13.60
2023-02-23T16:39:48.214Z,13.60
2023-02-23T16:42:22.024Z,13.60
2023-02-23T16:44:50.537Z,13.60
2023-02-23T16:47:39.731Z,13.60
2023-02-23T16:50:19.201Z,13.60
2023-02-23T16:52:53.066Z,13.50
2023-02-23T16:55:25.964Z,13.50
2023-02-23T16:57:55.683Z,13.40
2023-02-23T17:00:25.060Z,13.40
2023-02-23T17:02:53.724Z,13.40
2023-02-23T17:05:23.978Z,13.40
2023-02-23T17:07:54.016Z,13.30
2023-02-23T17:10:27.457Z,13.30
2023-02-23T17:12:56.764Z,13.30
2023-02-23T17:15:26.327Z,13.30
2023-02-23T17:17:56.318Z,13.30
2023-02-23T17:20:25.939Z,13.20
2023-02-23T17:22:56.295Z,13.20
2023-02-23T17:25:26.529Z,13.10
2023-02-23T17:27:55.090Z,13.10
2023-02-23T17:30:24.381Z,13.10
2023-02-23T17:32:53.285Z,13.10
2023-02-23T17:35:22.055Z,13.10
2023-02-23T17:37:50.828Z,13.00
2023-02-23T17:40:26.393Z,13.10
2023-02-23T17:42:54.905Z,13.10
2023-02-23T17:45:23.750Z,13.10
2023-02-23T17:47:52.444Z,13.10
2023-02-23T17:50:21.713Z,13.10
2023-02-23T17:52:50.609Z,13.00
2023-02-23T17:55:20.858Z,13.00
2023-02-23T17:57:49.309Z,13.00
2023-02-23T18:00:18.705Z,12.90
2023-02-23T18:02:47.279Z,12.90
2023-02-23T18:05:15.958Z,12.80
2023-02-23T18:07:46.493Z,12.80
2023-02-23T18:10:17.203Z,12.80
2023-02-23T18:12:47.263Z,12.80
2023-02-23T18:15:15.778Z,12.80
2023-02-23T18:17:44.423Z,12.70
2023-02-23T18:20:15.245Z,12.80
2023-02-23T18:22:43.866Z,12.80
2023-02-23T18:25:20.466Z,12.70
2023-02-23T18:27:54.341Z,12.70
2023-02-23T18:30:23.562Z,12.70
2023-02-23T18:32:52.767Z,12.70
2023-02-23T18:35:21.327Z,12.60
2023-02-23T18:37:50.180Z,12.60
2023-02-23T18:40:23.882Z,12.60
2023-02-23T18:42:53.791Z,12.70
2023-02-23T18:45:22.255Z,12.70
2023-02-23T18:47:51.547Z,12.70
2023-02-23T18:50:20.090Z,12.60
2023-02-23T18:52:49.010Z,12.60
2023-02-23T18:55:18.152Z,12.60
2023-02-23T18:57:46.681Z,12.70
2023-02-23T19:00:18.349Z,12.70
2023-02-23T19:02:47.527Z,12.70
2023-02-23T19:05:18.173Z,12.70
2023-02-23T19:07:47.438Z,12.70
2023-02-23T19:10:19.561Z,12.60
2023-02-23T19:12:48.025Z,12.60
2023-02-23T19:15:18.008Z,12.60
2023-02-23T19:17:47.450Z,12.50
2023-02-23T19:20:15.957Z,12.50
2023-02-23T19:22:45.520Z,12.50
2023-02-23T19:25:14.549Z,12.50
2023-02-23T19:27:43.798Z,12.40
2023-02-23T19:30:14.612Z,12.40
2023-02-23T19:32:45.006Z,12.40
2023-02-23T19:35:15.272Z,12.30
2023-02-23T19:37:50.275Z,12.30
2023-02-23T19:40:20.913Z,12.40
2023-02-23T19:42:49.649Z,12.40
2023-02-23T19:45:18.373Z,12.40
2023-02-23T19:47:48.283Z,12.40
2023-02-23T19:50:19.036Z,12.50
2023-02-23T19:52:47.844Z,12.40
2023-02-23T19:55:16.650Z,12.50
2023-02-23T19:57:45.123Z,12.50
2023-02-23T20:00:14.027Z,12.50
2023-02-23T20:02:43.871Z,12.40
2023-02-23T20:05:15.116Z,12.50
2023-02-23T20:07:43.605Z,12.50
2023-02-23T20:10:14.004Z,12.50
2023-02-23T20:12:42.550Z,12.40
2023-02-23T20:15:11.351Z,12.40
2023-02-23T20:17:40.126Z,12.40
2023-02-23T20:20:11.263Z,12.50
2023-02-23T20:22:42.257Z,12.50
2023-02-23T20:25:16.042Z,12.50
2023-02-23T20:27:45.168Z,12.60
2023-02-23T20:30:14.433Z,12.60
2023-02-23T20:32:42.958Z,12.60
2023-02-23T20:35:13.091Z,12.60
2023-02-23T20:37:43.577Z,12.50
2023-02-23T20:40:17.057Z,12.50
2023-02-23T20:42:47.929Z,12.50
2023-02-23T20:45:17.358Z,12.40
2023-02-23T20:47:46.924Z,12.40
2023-02-23T20:50:15.812Z,12.40
2023-02-23T20:52:45.973Z,12.40
2023-02-23T20:55:19.367Z,12.50
2023-02-23T20:57:48.464Z,12.40
2023-02-23T21:00:22.737Z,12.50
2023-02-23T21:02:55.497Z,12.50
2023-02-23T21:05:25.412Z,12.50
2023-02-23T21:07:58.741Z,12.40
2023-02-23T21:10:29.684Z,12.50
2023-02-23T21:12:58.177Z,12.50
2023-02-23T21:15:27.425Z,12.50
2023-02-23T21:17:56.271Z,12.50
2023-02-23T21:20:25.422Z,12.60
2023-02-23T21:22:55.276Z,12.50
2023-02-23T21:25:24.919Z,12.60
2023-02-23T21:27:54.265Z,12.60
2023-02-23T21:30:24.172Z,12.50
2023-02-23T21:32:53.658Z,12.50
2023-02-23T21:35:22.411Z,12.60
2023-02-23T21:37:51.787Z,12.60
2023-02-23T21:40:23.309Z,12.50
2023-02-23T21:42:52.000Z,12.40
2023-02-23T21:45:20.641Z,12.40
2023-02-23T21:47:49.759Z,12.40
2023-02-23T21:50:19.975Z,12.30
2023-02-23T21:52:48.801Z,12.30
2023-02-23T21:55:21.914Z,12.20
2023-02-23T21:57:52.832Z,12.20
2023-02-23T22:00:22.961Z,12.10
2023-02-23T22:02:52.067Z,12.20
2023-02-23T22:05:21.483Z,12.10
2023-02-23T22:07:50.762Z,12.10
2023-02-23T22:10:19.971Z,12.10
2023-02-23T22:12:50.153Z,12.00
2023-02-23T22:15:20.163Z,12.00
2023-02-23T22:17:48.674Z,12.00
2023-02-23T22:20:20.251Z,12.00
2023-02-23T22:22:50.463Z,11.90
2023-02-23T22:25:19.533Z,11.90
2023-02-23T22:27:48.024Z,11.90
2023-02-23T22:30:16.851Z,11.80
2023-02-23T22:32:47.789Z,11.80
2023-02-23T22:35:16.609Z,11.80
2023-02-23T22:37:44.995Z,11.80
2023-02-23T22:40:15.768Z,11.70
2023-02-23T22:42:48.384Z,11.70
2023-02-23T22:45:17.417Z,11.80
2023-02-23T22:47:47.332Z,11.80
2023-02-23T22:50:18.276Z,11.80
2023-02-23T22:52:46.789Z,11.80
2023-02-23T22:55:15.250Z,11.90
2023-02-23T22:57:44.062Z,11.90
2023-02-23T23:00:15.386Z,11.90
2023-02-23T23:02:43.839Z,11.90
2023-02-23T23:05:14.483Z,11.90
2023-02-23T23:07:42.991Z,11.80
2023-02-23T23:10:12.160Z,11.80
2023-02-23T23:12:41.288Z,11.80
2023-02-23T23:15:14.919Z,11.70
2023-02-23T23:17:48.244Z,11.70
2023-02-23T23:20:23.207Z,11.80
2023-02-23T23:22:51.696Z,11.80
2023-02-23T23:25:22.983Z,11.80
2023-02-23T23:27:53.648Z,11.80
2023-02-23T23:30:26.070Z,11.70
2023-02-23T23:32:54.687Z,11.70
2023-02-23T23:35:26.220Z,11.70
2023-02-23T23:37:54.633Z,11.70
2023-02-23T23:40:24.837Z,11.70
2023-02-23T23:42:55.880Z,11.60
2023-02-23T23:45:25.824Z,11.60
2023-02-23T23:47:54.283Z,11.50
2023-02-23T23:50:27.218Z,11.50
2023-02-23T23:52:57.073Z,11.50
2023-02-23T23:55:31.393Z,11.50
2023-02-23T23:58:00.747Z,11.40
